Time;durP1;ratioP1;P1;durP2;ratioP2;P2;SDS_P1;SDS_P2;PMS_P1;PMS_P2;Temp;Humidity;BMP_temperature;BMP_pressure;BME280_temperature;BME280_humidity;BME280_pressure;Samples;Min_cycle;Max_cycle;Signal;HPM_P1;HPM_P2
2024/03/01 00:10:08;;;;;;;100.00;53.30;;;;;;;7.17;94.91;98295.16;433990;1256;108282;-40
2024/03/01 00:20:16;;;;;;;96.10;51.60;;;;;;;7.22;95.01;98294.00;433826;1265;98835;-40
2024/03/01 00:30:22;;;;;;;92.70;51.40;;;;;;;7.29;95.10;98294.79;434023;1256;112526;-40
2024/03/01 00:40:29;;;;;;;107.30;58.50;;;;;;;7.26;95.36;98284.82;434050;1260;107537;-41
2024/03/01 00:50:36;;;;;;;101.30;51.50;;;;;;;7.27;95.55;98274.58;434064;1262;99333;-39
2024/03/01 01:00:43;;;;;;;100.70;51.20;;;;;;;7.26;95.34;98271.44;434078;1261;109728;-40
2024/03/01 01:10:51;;;;;;;96.10;51.20;;;;;;;7.27;95.34;98267.70;433891;1260;99356;-40
2024/03/01 01:20:58;;;;;;;86.20;49.00;;;;;;;7.19;95.30;98249.66;434015;1256;111813;-40
2024/03/01 01:31:07;;;;;;;94.30;50.20;;;;;;;7.16;95.58;98242.33;433976;1256;107687;-40
2024/03/01 01:41:15;;;;;;;89.80;46.60;;;;;;;7.21;95.68;98232.00;433971;1261;98509;-39
2024/03/01 01:51:23;;;;;;;88.70;47.60;;;;;;;7.24;95.92;98207.00;433945;1256;107949;-40
2024/03/01 02:01:30;;;;;;;90.20;49.20;;;;;;;7.25;95.76;98204.41;434007;1256;99269;-39
2024/03/01 02:11:38;;;;;;;83.90;45.80;;;;;;;7.25;96.01;98193.52;434132;1256;111820;-39
2024/03/01 02:21:54;;;;;;;89.70;48.00;;;;;;;7.28;96.08;98179.73;434046;1262;109368;-44
2024/03/01 02:32:01;;;;;;;86.70;48.00;;;;;;;7.25;96.14;98170.46;434605;1255;99333;-40
2024/03/01 02:42:09;;;;;;;78.10;46.40;;;;;;;7.28;96.32;98165.57;434076;1262;107823;-40
2024/03/01 03:02:22;;;;;;;100.30;54.80;;;;;;;7.28;96.40;98148.05;434043;1262;112228;-40
2024/03/01 03:12:28;;;;;;;95.20;53.00;;;;;;;7.16;96.35;98137.52;434108;1262;108125;-39
2024/03/01 03:22:36;;;;;;;90.80;50.40;;;;;;;7.04;96.32;98133.86;434104;1260;99233;-41
2024/03/01 03:32:45;;;;;;;83.80;47.60;;;;;;;7.06;96.24;98128.96;434110;1262;107917;-44
2024/03/01 03:42:52;;;;;;;77.60;46.80;;;;;;;7.06;96.37;98128.52;434202;1262;99249;-40
2024/03/01 03:52:58;;;;;;;79.00;47.80;;;;;;;7.06;96.38;98116.45;434046;1260;111570;-40
2024/03/01 04:03:03;;;;;;;91.10;53.50;;;;;;;6.99;96.33;98111.89;433910;1258;108429;-39
2024/03/01 04:13:10;;;;;;;101.30;56.30;;;;;;;6.77;96.22;98105.77;430012;1260;5581890;-40
2024/03/01 04:23:17;;;;;;;79.90;48.00;;;;;;;6.61;96.29;98108.19;433916;1269;108052;-40
2024/03/01 04:33:24;;;;;;;86.60;49.40;;;;;;;6.59;96.43;98109.38;434076;1260;98751;-40
2024/03/01 04:43:31;;;;;;;83.50;48.90;;;;;;;6.52;96.45;98104.77;433875;1261;110997;-39
2024/03/01 04:53:38;;;;;;;82.50;47.00;;;;;;;6.49;96.56;98104.40;434002;1269;107457;-40
2024/03/01 05:03:45;;;;;;;85.10;47.90;;;;;;;6.44;96.72;98108.25;433791;1260;97983;-40
2024/03/01 05:13:52;;;;;;;94.90;50.80;;;;;;;6.38;96.65;98093.73;433997;1256;106840;-40
2024/03/01 05:23:59;;;;;;;84.60;48.00;;;;;;;6.40;96.94;98102.73;433871;1261;99221;-40
2024/03/01 05:34:06;;;;;;;85.70;49.50;;;;;;;6.39;96.86;98122.39;433930;1261;111871;-39
2024/03/01 05:44:12;;;;;;;99.60;54.10;;;;;;;6.39;96.98;98127.23;433851;1257;108148;-39
2024/03/01 05:54:19;;;;;;;97.90;55.90;;;;;;;6.47;97.41;98125.95;433955;1269;97941;-39
2024/03/01 06:04:26;;;;;;;106.70;57.80;;;;;;;6.53;97.25;98124.77;433851;1270;108430;-40
2024/03/01 06:44:53;;;;;;;97.10;54.60;;;;;;;6.91;97.33;98133.64;433921;1260;99253;-40
2024/03/01 06:55:00;;;;;;;103.00;60.00;;;;;;;7.08;97.43;98128.51;433913;1257;108384;-40
2024/03/01 07:05:06;;;;;;;117.30;65.60;;;;;;;7.17;97.54;98105.11;433885;1269;98018;-40
2024/03/01 07:15:12;;;;;;;102.20;58.70;;;;;;;7.24;97.62;98096.64;433878;1257;111197;-39
2024/03/01 07:25:18;;;;;;;112.70;61.00;;;;;;;7.47;97.70;98113.30;433893;1257;107565;-39
2024/03/01 07:35:26;;;;;;;100.80;56.70;;;;;;;7.63;97.62;98108.81;433898;1261;98025;-39
2024/03/01 08:05:46;;;;;;;108.20;60.60;;;;;;;7.93;97.77;98084.38;433982;1261;110328;-40
2024/03/01 08:15:54;;;;;;;108.00;62.10;;;;;;;8.15;97.96;98094.23;434035;1269;109344;-40
2024/03/01 08:26:01;;;;;;;101.10;59.60;;;;;;;8.79;98.73;98067.65;434124;1259;99231;-40
2024/03/01 08:36:06;;;;;;;103.50;59.70;;;;;;;9.48;98.14;98055.33;433956;1257;108281;-40
2024/03/01 08:46:21;;;;;;;94.60;55.60;;;;;;;9.96;98.25;98053.45;433972;1257;98123;-39
2024/03/01 08:56:34;;;;;;;86.10;52.50;;;;;;;10.31;96.92;98047.27;433838;1258;111356;-39
2024/03/01 09:16:49;;;;;;;93.90;57.60;;;;;;;10.36;95.69;98059.76;434140;1256;99147;-40
2024/03/01 09:26:57;;;;;;;81.60;51.70;;;;;;;10.37;95.76;98052.65;433961;1256;109871;-40
2024/03/01 09:37:04;;;;;;;86.70;55.40;;;;;;;10.73;95.58;98038.23;433829;1261;99244;-39
2024/03/01 09:47:12;;;;;;;95.10;56.80;;;;;;;11.06;95.41;98054.10;433868;1257;111662;-40
2024/03/01 09:57:17;;;;;;;87.10;52.80;;;;;;;11.50;94.79;98048.81;433916;1261;107669;-39
2024/03/01 10:07:23;;;;;;;78.50;48.00;;;;;;;12.11;93.96;98052.04;433750;1258;99224;-40
2024/03/01 10:17:29;;;;;;;70.90;47.70;;;;;;;12.43;93.20;98057.05;434091;1260;107623;-40
2024/03/01 10:27:36;;;;;;;83.10;53.80;;;;;;;12.50;92.53;98039.05;433778;1260;98001;-40
2024/03/01 10:37:45;;;;;;;78.10;51.80;;;;;;;12.56;90.65;98016.88;434036;1256;110906;-40
2024/03/01 10:47:53;;;;;;;74.50;48.90;;;;;;;12.90;89.90;98007.00;433688;1260;106973;-39
2024/03/01 10:57:59;;;;;;;71.20;47.80;;;;;;;12.99;88.25;98014.20;433876;1256;99242;-39
2024/03/01 11:08:23;;;;;;;74.80;47.30;;;;;;;13.06;88.27;98016.14;434078;1257;109009;-39
2024/03/01 11:18:33;;;;;;;76.70;49.80;;;;;;;13.27;87.46;98002.54;433780;1256;99893;-40
2024/03/01 11:28:38;;;;;;;82.30;52.60;;;;;;;13.39;85.98;97996.82;433677;1256;110880;-39
2024/03/01 11:48:50;;;;;;;79.10;51.00;;;;;;;13.06;84.27;98010.89;434111;1260;99255;-39
2024/03/01 11:59:13;;;;;;;87.00;53.90;;;;;;;12.87;84.22;98008.48;434004;1260;109309;-40
2024/03/01 12:09:17;;;;;;;85.80;52.30;;;;;;;12.53;83.49;97991.35;433876;1256;98319;-40
2024/03/01 12:19:29;;;;;;;77.50;50.00;;;;;;;12.20;82.02;97976.79;433922;1260;110765;-40
2024/03/01 12:39:47;;;;;;;80.00;51.50;;;;;;;11.98;82.74;97984.38;433994;1260;98046;-39
2024/03/01 13:10:13;;;;;;;81.70;52.50;;;;;;;11.99;82.98;97992.96;434071;1257;110316;-40
2024/03/01 13:20:39;;;;;;;70.10;46.70;;;;;;;11.95;82.58;97985.20;434017;1256;108446;-41
2024/03/01 13:30:47;;;;;;;77.10;49.00;;;;;;;11.78;82.65;97973.92;433887;1260;99238;-40
2024/03/01 13:41:08;;;;;;;77.70;48.80;;;;;;;11.64;82.74;97963.59;433849;1258;107666;-41
2024/03/01 13:51:16;;;;;;;74.50;44.50;;;;;;;11.67;82.72;97961.23;433843;1256;99361;-40
2024/03/01 14:11:31;;;;;;;81.00;47.30;;;;;;;11.60;82.53;97959.20;433900;1258;107572;-40
2024/03/01 14:21:38;;;;;;;76.30;47.80;;;;;;;11.54;83.04;97959.46;434012;1256;99117;-40
2024/03/01 14:32:02;;;;;;;72.50;43.70;;;;;;;11.56;82.95;97959.96;433798;1256;109271;-39
2024/03/01 14:42:16;;;;;;;71.40;43.40;;;;;;;11.60;83.30;97956.84;433812;1261;99318;-40
2024/03/01 14:52:22;;;;;;;76.10;47.30;;;;;;;11.55;83.19;97957.10;434021;1260;111357;-39
2024/03/01 15:02:30;;;;;;;74.90;43.20;;;;;;;11.47;83.03;97954.16;433934;1260;108209;-40
2024/03/01 15:12:38;;;;;;;77.90;43.20;;;;;;;11.44;82.78;97967.90;433916;1260;99266;-39
2024/03/01 15:22:52;;;;;;;74.40;44.00;;;;;;;11.45;82.87;97961.52;433821;1260;107734;-40
2024/03/01 15:33:01;;;;;;;85.30;51.40;;;;;;;11.33;83.26;97969.23;433932;1256;99247;-40
2024/03/01 15:43:08;;;;;;;98.70;50.70;;;;;;;11.17;83.20;97970.51;433949;1260;111770;-39
2024/03/01 15:53:17;;;;;;;96.00;52.30;;;;;;;11.04;83.12;97979.52;434044;1256;108705;-40
2024/03/01 16:03:30;;;;;;;85.10;48.90;;;;;;;10.90;83.58;97990.78;433868;1258;98137;-40
2024/03/01 16:33:49;;;;;;;95.80;54.70;;;;;;;10.39;85.03;98010.87;433949;1260;111080;-39
2024/03/01 16:54:06;;;;;;;102.60;58.60;;;;;;;10.13;86.08;98020.14;434039;1261;99232;-40
2024/03/01 17:14:26;;;;;;;95.60;53.40;;;;;;;9.81;86.83;98022.37;433869;1260;99253;-41
2024/03/01 17:24:33;;;;;;;86.50;51.90;;;;;;;9.72;87.16;98026.40;433931;1256;113009;-41
2024/03/01 17:34:39;;;;;;;94.30;55.30;;;;;;;9.62;87.58;98040.42;433917;1261;107908;-40
2024/03/01 17:44:47;;;;;;;93.10;53.50;;;;;;;9.49;88.00;98047.27;433800;1260;99256;-40
2024/03/01 17:54:54;;;;;;;87.60;50.70;;;;;;;9.39;88.38;98051.77;433984;1260;108100;-38
2024/03/01 18:05:01;;;;;;;83.70;49.50;;;;;;;9.33;88.77;98056.14;434070;1261;99090;-41
2024/03/01 18:15:10;;;;;;;92.50;53.50;;;;;;;9.19;89.20;98065.22;434122;1256;111041;-40
2024/03/01 18:25:15;;;;;;;75.50;45.10;;;;;;;9.05;89.35;98068.75;433905;1256;107617;-40
2024/03/01 18:35:24;;;;;;;75.20;43.40;;;;;;;8.89;89.66;98064.03;434021;1256;99266;-40
2024/03/01 18:45:32;;;;;;;84.40;44.90;;;;;;;8.78;89.96;98065.65;433867;1260;108344;-41
2024/03/01 18:55:40;;;;;;;91.50;46.00;;;;;;;8.75;90.16;98069.08;434002;1260;99256;-39
2024/03/01 19:05:48;;;;;;;80.60;44.00;;;;;;;8.68;90.18;98070.34;434058;1261;111724;-40
2024/03/01 19:15:55;;;;;;;103.70;53.80;;;;;;;8.57;90.47;98070.22;434061;1260;109214;-41
2024/03/01 19:26:01;;;;;;;88.50;50.50;;;;;;;8.48;90.72;98067.09;434058;1262;99251;-41
2024/03/01 19:36:08;;;;;;;103.00;49.00;;;;;;;8.38;90.75;98061.60;433978;1256;108795;-40
2024/03/01 19:46:15;;;;;;;96.50;48.50;;;;;;;8.26;90.95;98054.50;433965;1260;99269;-40
2024/03/01 19:56:21;;;;;;;94.20;50.20;;;;;;;8.21;91.18;98054.02;434052;1261;112389;-40
2024/03/01 20:06:28;;;;;;;83.80;44.30;;;;;;;8.08;91.33;98040.20;433949;1256;107529;-40
2024/03/01 20:16:36;;;;;;;71.60;39.60;;;;;;;7.96;91.55;98038.91;433989;1262;99258;-41
2024/03/01 20:26:44;;;;;;;79.60;41.80;;;;;;;7.79;91.75;98030.23;434005;1261;107876;-41
2024/03/01 20:36:52;;;;;;;70.20;37.90;;;;;;;7.73;92.17;98039.60;434005;1269;99358;-40
2024/03/01 20:46:58;;;;;;;75.70;39.80;;;;;;;7.68;92.11;98032.23;434090;1256;111773;-39
2024/03/01 20:57:06;;;;;;;87.60;45.30;;;;;;;7.54;92.46;98039.80;434168;1262;108330;-40
2024/03/01 21:07:14;;;;;;;82.50;45.50;;;;;;;7.44;92.53;98046.18;434023;1261;99324;-39
2024/03/01 21:17:21;;;;;;;92.50;46.10;;;;;;;7.42;92.71;98049.65;433952;1256;108190;-42
2024/03/01 21:27:28;;;;;;;89.00;45.60;;;;;;;7.41;93.06;98043.15;433929;1260;99362;-40
2024/03/01 21:47:40;;;;;;;90.90;46.70;;;;;;;7.43;93.31;98019.69;433832;1256;107739;-40
2024/03/01 21:57:48;;;;;;;83.70;45.40;;;;;;;7.47;93.47;98004.70;434060;1260;98826;-39
2024/03/01 22:07:54;;;;;;;91.20;47.90;;;;;;;7.44;93.45;98001.90;434016;1260;108138;-39
2024/03/01 22:18:17;;;;;;;81.80;42.20;;;;;;;7.41;93.48;97997.50;434101;1262;98025;-38
2024/03/01 22:28:24;;;;;;;76.70;40.90;;;;;;;7.44;93.49;97997.25;433989;1256;110962;-40
2024/03/01 22:38:31;;;;;;;68.00;39.30;;;;;;;7.47;93.56;97998.38;434010;1271;107800;-40
2024/03/01 22:48:38;;;;;;;79.80;44.10;;;;;;;7.53;93.50;97999.25;434048;1262;99227;-40
2024/03/01 22:58:48;;;;;;;86.90;46.40;;;;;;;7.54;93.73;97991.83;434250;1260;108632;-40
2024/03/01 23:08:53;;;;;;;82.10;46.20;;;;;;;7.45;93.52;97994.77;434061;1260;99247;-39
2024/03/01 23:19:00;;;;;;;81.80;40.90;;;;;;;7.33;93.34;98004.52;433993;1269;112526;-39
2024/03/01 23:39:14;;;;;;;67.60;38.00;;;;;;;7.13;93.53;98011.92;434007;1260;101531;-40
2024/03/01 23:49:21;;;;;;;65.60;38.50;;;;;;;7.11;93.56;98017.17;434015;1269;108850;-41
2024/03/01 23:59:28;;;;;;;66.20;36.00;;;;;;;7.05;93.68;98012.65;434127;1262;99230;-39
